Archbald, Pennsylvania
Current Conditions -  °F | °C
As of 9:54 PM on Sunday 23 Nov 2014 (Local Time) from KAVP Reporting Station
Overcast Overcast  
Wind Chill: 11°   Ceiling: 4000
Heat Index: 11°   Visibility: 10mi
Dew Point:   Wind: 7mph
Humidity: 56%   Direction: NA
Pressure: 29.95"   Gusts: NA
Location:  41.51°N, 75.56°W
Report Text: KAVP 240254Z VRB06KT 10SM OVC040 11/02 A2995 RMK AO2 SLP141 T01060022 58029
Loading
Personal Weather Stations






























Interactive Weather Map New forecast layout! Learn more

10-Day Weather Forecast

Advertisements
Track Severe Weather on mobile